createdAt,value
2023-02-08T00:00:05.619Z,0.93
2023-02-08T00:02:32.230Z,0.97
2023-02-08T00:04:58.829Z,0.80
2023-02-08T00:07:25.825Z,0.80
2023-02-08T00:09:52.373Z,0.90
2023-02-08T00:12:18.919Z,0.57
2023-02-08T00:14:45.481Z,0.50
2023-02-08T00:17:12.005Z,0.80
2023-02-08T00:19:38.587Z,0.60
2023-02-08T00:22:05.347Z,0.80
2023-02-08T00:24:32.647Z,0.80
2023-02-08T00:26:59.260Z,0.60
2023-02-08T00:29:25.785Z,0.50
2023-02-08T00:31:52.468Z,0.70
2023-02-08T00:34:19.057Z,0.43
2023-02-08T00:36:45.561Z,0.80
2023-02-08T00:39:12.128Z,0.77
2023-02-08T00:41:38.673Z,0.57
2023-02-08T00:44:05.352Z,0.90
2023-02-08T00:46:32.176Z,1.13
2023-02-08T00:48:58.722Z,0.77
2023-02-08T00:51:25.281Z,0.70
2023-02-08T00:53:51.764Z,0.63
2023-02-08T00:56:18.380Z,0.67
2023-02-08T00:58:44.926Z,0.80
2023-02-08T01:01:11.702Z,0.93
2023-02-08T01:03:39.921Z,0.80
2023-02-08T01:06:09.990Z,0.60
2023-02-08T01:08:37.178Z,0.40
2023-02-08T01:11:10.011Z,0.80
2023-02-08T01:13:38.060Z,1.00
2023-02-08T01:16:09.273Z,0.83
2023-02-08T01:18:36.034Z,0.83
2023-02-08T01:21:08.182Z,0.83
2023-02-08T01:23:35.349Z,0.53
2023-02-08T01:26:01.980Z,0.50
2023-02-08T01:28:28.713Z,0.70
2023-02-08T01:30:55.414Z,0.80
2023-02-08T01:33:21.977Z,1.00
2023-02-08T01:35:53.041Z,1.37
2023-02-08T01:38:20.364Z,0.83
2023-02-08T01:40:47.026Z,0.50
2023-02-08T01:43:26.685Z,1.00
2023-02-08T01:45:53.645Z,0.57
2023-02-08T01:48:26.436Z,0.93
2023-02-08T01:50:59.469Z,0.90
2023-02-08T01:53:28.268Z,0.93
2023-02-08T01:55:59.539Z,0.50
2023-02-08T01:58:29.446Z,1.10
2023-02-08T02:00:56.109Z,0.77
2023-02-08T02:03:24.449Z,1.10
2023-02-08T02:05:57.670Z,1.03
2023-02-08T02:08:24.672Z,0.90
2023-02-08T02:10:51.371Z,1.10
2023-02-08T02:13:22.107Z,1.60
2023-02-08T02:15:50.048Z,0.97
2023-02-08T02:18:26.390Z,0.53
2023-02-08T02:21:18.903Z,0.60
2023-02-08T02:24:13.313Z,0.50
2023-02-08T02:27:06.223Z,1.00
2023-02-08T02:29:47.914Z,0.80
2023-02-08T02:32:33.104Z,0.70
2023-02-08T02:35:02.659Z,0.90
2023-02-08T02:38:00.838Z,0.77
2023-02-08T02:41:10.397Z,0.70
2023-02-08T02:43:52.983Z,1.10
2023-02-08T02:46:50.452Z,0.63
2023-02-08T02:49:32.780Z,1.07
2023-02-08T02:52:05.929Z,1.07
2023-02-08T02:54:39.165Z,0.80
2023-02-08T02:57:10.434Z,1.07
2023-02-08T02:59:39.096Z,0.90
2023-02-08T03:02:06.104Z,0.77
2023-02-08T03:04:32.711Z,0.60
2023-02-08T03:07:18.085Z,0.73
2023-02-08T03:09:51.182Z,0.47
2023-02-08T03:12:28.473Z,0.70
2023-02-08T03:15:03.817Z,0.70
2023-02-08T03:18:04.407Z,0.47
2023-02-08T03:20:53.921Z,0.70
2023-02-08T03:23:31.831Z,0.50
2023-02-08T03:26:24.609Z,0.60
2023-02-08T03:29:02.503Z,1.20
2023-02-08T03:31:41.264Z,0.83
2023-02-08T03:34:16.611Z,0.83
2023-02-08T03:36:50.944Z,0.90
2023-02-08T03:39:23.141Z,1.00
2023-02-08T03:41:54.771Z,0.80
2023-02-08T03:44:27.314Z,0.93
2023-02-08T03:47:02.820Z,0.77
2023-02-08T03:49:34.193Z,0.40
2023-02-08T03:52:03.961Z,0.90
2023-02-08T03:54:35.582Z,0.83
2023-02-08T03:57:05.246Z,0.47
2023-02-08T03:59:37.188Z,0.73
2023-02-08T04:02:07.061Z,0.37
2023-02-08T04:04:38.094Z,0.90
2023-02-08T04:07:06.033Z,0.60
2023-02-08T04:09:32.555Z,1.20
2023-02-08T04:11:59.100Z,0.83
2023-02-08T04:14:25.749Z,0.57
2023-02-08T04:16:52.441Z,0.90
2023-02-08T04:19:19.050Z,0.73
2023-02-08T04:21:45.550Z,0.70
2023-02-08T04:24:12.077Z,0.80
2023-02-08T04:26:38.598Z,0.80
2023-02-08T04:29:05.198Z,0.70
2023-02-08T04:31:31.883Z,0.87
2023-02-08T04:33:58.582Z,1.07
2023-02-08T04:36:25.125Z,0.87
2023-02-08T04:38:51.680Z,0.93
2023-02-08T04:41:18.262Z,0.97
2023-02-08T04:43:44.794Z,1.47
2023-02-08T04:46:11.579Z,1.10
2023-02-08T04:48:38.156Z,1.03
2023-02-08T04:51:04.814Z,0.70
2023-02-08T04:53:31.452Z,0.80
2023-02-08T04:55:57.958Z,0.63
2023-02-08T04:58:24.545Z,0.77
2023-02-08T05:00:51.238Z,0.80
2023-02-08T05:03:18.351Z,1.17
2023-02-08T05:05:44.909Z,1.07
2023-02-08T05:08:11.487Z,0.70
2023-02-08T05:10:38.335Z,0.60
2023-02-08T05:13:04.950Z,0.90
2023-02-08T05:15:31.501Z,0.93
2023-02-08T05:17:58.011Z,1.03
2023-02-08T05:20:24.509Z,1.10
2023-02-08T05:22:51.036Z,1.27
2023-02-08T05:25:18.187Z,1.03
2023-02-08T05:27:44.690Z,0.70
2023-02-08T05:30:11.800Z,0.70
2023-02-08T05:32:38.406Z,1.13
2023-02-08T05:35:05.256Z,0.90
2023-02-08T05:37:31.800Z,1.40
2023-02-08T05:39:58.389Z,0.60
2023-02-08T05:42:24.960Z,1.43
2023-02-08T05:44:52.522Z,1.20
2023-02-08T05:47:19.215Z,1.00
2023-02-08T05:49:45.784Z,0.63
2023-02-08T05:52:12.378Z,0.90
2023-02-08T05:54:38.931Z,1.20
2023-02-08T05:57:05.878Z,0.83
2023-02-08T05:59:32.410Z,0.83
2023-02-08T06:01:59.070Z,1.00
2023-02-08T06:04:25.706Z,1.17
2023-02-08T06:06:52.289Z,1.77
2023-02-08T06:09:18.795Z,1.10
2023-02-08T06:11:45.297Z,1.27
2023-02-08T06:14:11.836Z,0.90
2023-02-08T06:16:38.369Z,1.17
2023-02-08T06:19:04.911Z,1.13
2023-02-08T06:21:31.555Z,2.23
2023-02-08T06:23:58.593Z,1.53
2023-02-08T06:26:25.143Z,1.03
2023-02-08T06:28:51.708Z,1.10
2023-02-08T06:31:18.293Z,1.70
2023-02-08T06:33:44.828Z,1.50
2023-02-08T06:36:11.332Z,1.57
2023-02-08T06:38:37.887Z,0.83
2023-02-08T06:41:04.528Z,1.23
2023-02-08T06:43:31.024Z,1.00
2023-02-08T06:45:57.561Z,1.20
2023-02-08T06:48:24.218Z,1.30
2023-02-08T06:50:53.668Z,0.73
2023-02-08T06:53:20.183Z,0.90
2023-02-08T06:55:50.540Z,1.07
2023-02-08T06:58:17.914Z,1.00
2023-02-08T07:00:47.828Z,0.87
2023-02-08T07:03:17.423Z,1.57
2023-02-08T07:05:58.626Z,1.20
2023-02-08T07:08:30.332Z,0.97
2023-02-08T07:10:56.870Z,0.80
2023-02-08T07:13:23.404Z,1.47
2023-02-08T07:15:49.901Z,0.97
2023-02-08T07:18:16.485Z,1.00
2023-02-08T07:20:43.022Z,1.17
2023-02-08T07:23:09.653Z,1.10
2023-02-08T07:25:36.163Z,1.60
2023-02-08T07:28:03.018Z,1.40
2023-02-08T07:30:29.676Z,1.27
2023-02-08T07:32:56.244Z,1.37
2023-02-08T07:35:22.828Z,1.60
2023-02-08T07:37:49.331Z,1.17
2023-02-08T07:40:15.905Z,1.57
2023-02-08T07:42:42.419Z,1.60
2023-02-08T07:45:09.247Z,1.43
2023-02-08T07:47:35.774Z,1.90
2023-02-08T07:50:02.306Z,1.77
2023-02-08T07:52:29.972Z,1.83
2023-02-08T07:54:56.511Z,1.40
2023-02-08T07:57:23.541Z,1.63
2023-02-08T07:59:50.726Z,1.23
2023-02-08T08:02:18.173Z,1.83
2023-02-08T08:04:44.679Z,1.77
2023-02-08T08:07:11.268Z,1.70
2023-02-08T08:09:37.836Z,1.53
2023-02-08T08:12:05.285Z,2.20
2023-02-08T08:14:31.852Z,1.50
2023-02-08T08:16:58.392Z,2.10
2023-02-08T08:19:45.146Z,2.67
2023-02-08T08:22:12.066Z,2.10
2023-02-08T08:24:38.610Z,1.70
2023-02-08T08:27:06.692Z,1.83
2023-02-08T08:29:35.458Z,1.67
2023-02-08T08:32:02.963Z,3.07
2023-02-08T08:34:30.102Z,1.30
2023-02-08T08:36:57.896Z,1.87
2023-02-08T08:39:25.356Z,1.80
2023-02-08T08:41:51.857Z,1.63
2023-02-08T08:44:18.388Z,1.70
2023-02-08T08:46:45.024Z,1.50
2023-02-08T08:49:11.712Z,1.40
2023-02-08T08:51:38.219Z,2.00
2023-02-08T08:54:05.828Z,2.00
2023-02-08T08:56:33.076Z,2.37
2023-02-08T08:58:59.614Z,1.57
2023-02-08T09:01:26.242Z,1.57
2023-02-08T09:03:52.849Z,1.07
2023-02-08T09:06:19.425Z,1.43
2023-02-08T09:08:45.926Z,1.23
2023-02-08T09:11:15.269Z,2.07
2023-02-08T09:13:42.871Z,0.80
2023-02-08T09:16:15.781Z,1.10
2023-02-08T09:18:43.379Z,1.30
2023-02-08T09:21:13.886Z,1.30
2023-02-08T09:23:40.748Z,1.10
2023-02-08T09:26:11.540Z,1.00
2023-02-08T09:28:38.701Z,0.97
2023-02-08T09:31:32.475Z,1.30
2023-02-08T09:34:00.918Z,0.87
2023-02-08T09:36:31.824Z,1.20
2023-02-08T09:39:05.888Z,1.03
2023-02-08T09:41:50.953Z,1.20
2023-02-08T09:44:30.776Z,1.30
2023-02-08T09:47:06.389Z,0.77
2023-02-08T09:50:06.746Z,0.93
2023-02-08T09:52:44.715Z,0.80
2023-02-08T09:55:17.268Z,1.13
2023-02-08T09:57:44.915Z,1.20
2023-02-08T10:00:19.139Z,1.03
2023-02-08T10:02:48.791Z,1.27
2023-02-08T10:05:22.314Z,0.83
2023-02-08T10:07:48.987Z,0.67
2023-02-08T10:10:30.632Z,0.43
2023-02-08T10:13:20.552Z,1.33
2023-02-08T10:15:53.750Z,0.67
2023-02-08T10:18:29.523Z,0.70
2023-02-08T10:21:15.785Z,1.70
2023-02-08T10:24:09.890Z,1.00
2023-02-08T10:27:16.861Z,0.70
2023-02-08T10:29:52.599Z,0.67
2023-02-08T10:32:39.406Z,0.80
2023-02-08T10:35:12.733Z,0.40
2023-02-08T10:37:42.033Z,0.70
2023-02-08T10:40:26.920Z,0.90
2023-02-08T10:43:10.780Z,0.70
2023-02-08T10:45:54.950Z,0.60
2023-02-08T10:48:49.412Z,0.70
2023-02-08T10:51:18.030Z,0.70
2023-02-08T10:53:45.840Z,0.70
2023-02-08T10:56:33.119Z,0.70
2023-02-08T10:59:01.953Z,1.03
2023-02-08T11:01:28.869Z,0.70
2023-02-08T11:04:01.626Z,0.80
2023-02-08T11:06:28.261Z,0.50
2023-02-08T11:08:56.372Z,0.63
2023-02-08T11:11:24.740Z,1.00
2023-02-08T11:13:51.502Z,0.30
2023-02-08T11:16:27.893Z,0.63
2023-02-08T11:18:58.405Z,0.70
2023-02-08T11:21:34.754Z,0.50
2023-02-08T11:24:23.858Z,0.87
2023-02-08T11:26:50.444Z,1.13
2023-02-08T11:29:20.103Z,0.67
2023-02-08T11:31:55.546Z,0.50
2023-02-08T11:34:26.264Z,0.67
2023-02-08T11:36:53.113Z,0.60
2023-02-08T11:39:27.998Z,0.70
2023-02-08T11:41:57.870Z,0.70
2023-02-08T11:44:32.575Z,0.60
2023-02-08T11:47:10.761Z,0.60
2023-02-08T11:49:51.292Z,0.50
2023-02-08T11:52:25.754Z,0.50
2023-02-08T11:54:53.930Z,0.90
2023-02-08T11:57:21.652Z,0.80
2023-02-08T11:59:50.353Z,0.50
2023-02-08T12:02:38.368Z,0.60
2023-02-08T12:05:13.689Z,0.50
2023-02-08T12:07:57.884Z,0.70
2023-02-08T12:10:55.097Z,0.67
2023-02-08T12:13:43.314Z,0.30
2023-02-08T12:16:09.846Z,0.60
2023-02-08T12:18:55.307Z,0.60
2023-02-08T12:21:26.584Z,0.63
2023-02-08T12:24:03.166Z,0.47
2023-02-08T12:27:05.038Z,0.60
2023-02-08T12:30:03.997Z,0.80
2023-02-08T12:32:49.115Z,0.70
2023-02-08T12:35:48.190Z,0.70
2023-02-08T12:38:45.309Z,0.73
2023-02-08T12:41:36.106Z,0.60
2023-02-08T12:44:17.840Z,0.60
2023-02-08T12:47:05.817Z,0.83
2023-02-08T12:49:39.339Z,0.40
2023-02-08T12:52:16.736Z,0.50
2023-02-08T12:54:51.477Z,0.80
2023-02-08T12:57:22.412Z,0.80
2023-02-08T12:59:58.712Z,0.73
2023-02-08T13:02:35.143Z,0.60
2023-02-08T13:05:07.347Z,0.53
2023-02-08T13:07:38.772Z,0.53
2023-02-08T13:10:29.589Z,1.00
2023-02-08T13:13:06.114Z,0.80
2023-02-08T13:15:45.601Z,0.70
2023-02-08T13:18:27.468Z,0.80
2023-02-08T13:20:59.380Z,0.60
2023-02-08T13:23:27.465Z,0.73
2023-02-08T16:02:55.293Z,0.83
2023-02-08T16:05:33.082Z,0.50
2023-02-08T16:08:00.697Z,0.90
2023-02-08T16:10:42.659Z,1.10
2023-02-08T16:13:23.449Z,0.70
2023-02-08T16:16:07.123Z,0.70
2023-02-08T16:18:44.285Z,0.80
2023-02-08T16:21:24.468Z,0.90
2023-02-08T16:23:56.687Z,0.80
2023-02-08T16:26:45.381Z,0.93
2023-02-08T16:29:40.207Z,0.70
2023-02-08T16:32:18.871Z,1.03
2023-02-08T16:34:45.863Z,0.70
2023-02-08T16:37:26.302Z,0.63
2023-02-08T16:39:58.994Z,0.90
2023-02-08T16:42:31.340Z,0.90
2023-02-08T16:45:12.918Z,0.77
2023-02-08T16:47:41.017Z,0.80
2023-02-08T16:50:10.172Z,0.73
2023-02-08T16:52:36.964Z,0.80
2023-02-08T16:55:04.117Z,0.80
2023-02-08T16:57:42.316Z,0.50
2023-02-08T17:00:30.683Z,0.70
2023-02-08T17:02:57.502Z,1.27
2023-02-08T17:05:27.267Z,1.07
2023-02-08T17:07:54.182Z,1.30
2023-02-08T17:10:27.649Z,0.87
2023-02-08T17:13:06.837Z,1.10
2023-02-08T17:15:43.647Z,1.77
2023-02-08T17:18:11.751Z,1.10
2023-02-08T17:20:38.553Z,1.00
2023-02-08T17:23:06.576Z,1.50
2023-02-08T17:25:34.161Z,1.40
2023-02-08T17:28:11.941Z,0.90
2023-02-08T17:30:41.452Z,0.80
2023-02-08T17:33:11.591Z,0.83
2023-02-08T17:35:38.415Z,1.07
2023-02-08T17:38:06.111Z,1.23
2023-02-08T17:40:35.769Z,1.20
2023-02-08T17:43:03.933Z,1.00
2023-02-08T17:45:31.045Z,1.40
2023-02-08T17:48:00.205Z,0.97
2023-02-08T17:50:26.866Z,0.97
2023-02-08T17:52:53.884Z,0.90
2023-02-08T17:55:20.481Z,1.00
2023-02-08T17:57:47.059Z,0.90
2023-02-08T18:00:15.645Z,1.30
2023-02-08T18:02:47.167Z,1.10
2023-02-08T18:05:15.319Z,1.20
2023-02-08T18:07:42.051Z,0.80
2023-02-08T18:10:10.025Z,1.40
2023-02-08T18:12:37.546Z,1.10
2023-02-08T18:15:06.012Z,1.10
2023-02-08T18:17:33.272Z,1.10
2023-02-08T18:20:00.164Z,0.83
2023-02-08T18:22:27.455Z,1.10
2023-02-08T18:24:55.304Z,1.57
2023-02-08T18:27:25.444Z,1.10
2023-02-08T18:29:52.028Z,1.17
2023-02-08T18:32:20.379Z,1.07
2023-02-08T18:34:47.122Z,1.07
2023-02-08T18:37:13.868Z,1.10
2023-02-08T18:39:40.706Z,1.17
2023-02-08T18:42:07.343Z,1.00
2023-02-08T18:44:36.772Z,1.20
2023-02-08T18:47:03.908Z,1.30
2023-02-08T18:49:31.311Z,1.17
2023-02-08T18:51:58.173Z,1.03
2023-02-08T18:54:24.733Z,1.23
2023-02-08T18:56:54.709Z,1.20
2023-02-08T18:59:21.505Z,0.93
2023-02-08T19:01:48.256Z,0.93
2023-02-08T19:04:14.839Z,1.07
2023-02-08T19:06:41.389Z,1.03
2023-02-08T19:09:08.540Z,1.50
2023-02-08T19:11:38.124Z,1.00
2023-02-08T19:14:08.277Z,0.70
2023-02-08T19:16:36.655Z,1.10
2023-02-08T19:19:05.184Z,0.97
2023-02-08T19:21:33.431Z,0.90
2023-02-08T19:24:00.750Z,0.80
2023-02-08T19:26:30.267Z,0.70
2023-02-08T19:29:00.043Z,0.80
2023-02-08T19:31:27.899Z,0.67
2023-02-08T19:33:58.818Z,0.80
2023-02-08T19:36:41.931Z,1.13
2023-02-08T19:39:08.512Z,0.60
2023-02-08T19:41:38.403Z,0.80
2023-02-08T19:44:07.419Z,0.90
2023-02-08T19:46:38.655Z,0.87
2023-02-08T19:49:06.531Z,0.57
2023-02-08T19:51:34.747Z,1.03
2023-02-08T19:54:03.845Z,1.40
2023-02-08T19:56:34.131Z,0.77
2023-02-08T19:59:05.997Z,0.90
2023-02-08T20:01:34.388Z,0.90
2023-02-08T20:04:01.874Z,0.97
2023-02-08T20:06:34.368Z,0.67
